Terminal Aerodrome Forecast
Issued by NWS St Louis, MO

Home | Current Version | Previous Version | Graphics & Text | Print | Product List | Glossary On
Versions: 1 2 3 4 5 6 7 8 9 10 11 12 13 14 15 16 17 18 19 20 21 22 23 24 25 26
000
FTUS43 KLSX 290520
TAFSTL
TAF
KSTL 290520Z 2906/3012 VRB04KT P6SM SCT050
     FM291200 27006KT P6SM VCTS SCT030CB BKN080
     FM291500 31010KT P6SM BKN040
     FM291900 34009KT P6SM VCTS BKN040CB
     FM300000 34006KT P6SM SCT250=

USA.gov is the U.S. government's official web portal to all federal, state and local government web resources and services.